White Post, Virginia
Current Conditions -  °F | °C
As of 11:15 AM on Monday 26 Jan 2015 (Local Time) from KOKV Reporting Station
Light Snow Light Snow  
Wind Chill:   Ceiling: 500
Heat Index:   Visibility: 1.7mi
Dew Point: -1°   Wind: 0mph
Humidity: 87%   Direction: NA
Pressure: 29.77"   Gusts: NA
Location:  39.06°N, 78.1°W
Report Text: KOKV 261615Z AUTO 00000KT 1 3/4SM -SN OVC005 01/M01 A2977 RMK AO2
Loading
Personal Weather Stations






























Interactive Weather Map New forecast layout! Learn more

10-Day Weather Forecast

Advertisements
Track Severe Weather on mobile